createdAt,value
2022-12-29T00:00:51.837Z,25.27
2022-12-29T00:03:54.441Z,24.92
2022-12-29T00:06:56.669Z,22.48
2022-12-29T00:09:59.056Z,22.00
2022-12-29T00:13:19.690Z,23.08
2022-12-29T00:16:22.270Z,23.08
2022-12-29T00:19:43.144Z,25.27
2022-12-29T00:23:04.085Z,27.23
2022-12-29T00:26:32.705Z,26.27
2022-12-29T00:29:54.439Z,23.42
2022-12-29T00:33:15.269Z,23.27
2022-12-29T00:36:37.765Z,21.35
2022-12-29T00:39:58.975Z,25.80
2022-12-29T00:43:20.224Z,23.73
2022-12-29T00:46:22.489Z,23.83
2022-12-29T00:49:31.172Z,24.52
2022-12-29T00:52:33.307Z,23.87
2022-12-29T00:55:41.336Z,24.75
2022-12-29T00:58:43.536Z,26.55
2022-12-29T01:01:47.020Z,26.37
2022-12-29T01:04:49.438Z,23.67
2022-12-29T01:07:52.009Z,22.80
2022-12-29T01:11:05.912Z,24.20
2022-12-29T01:14:08.382Z,22.17
2022-12-29T01:17:10.545Z,21.52
2022-12-29T01:20:13.490Z,22.87
2022-12-29T01:23:16.769Z,26.23
2022-12-29T01:26:21.274Z,27.95
2022-12-29T01:29:23.609Z,24.40
2022-12-29T01:32:26.079Z,22.85
2022-12-29T01:35:28.938Z,24.10
2022-12-29T01:38:34.161Z,23.27
2022-12-29T01:41:36.403Z,25.08
2022-12-29T01:45:00.924Z,22.40
2022-12-29T01:48:06.440Z,21.77
2022-12-29T01:51:09.166Z,24.58
2022-12-29T01:54:18.585Z,23.02
2022-12-29T01:57:27.509Z,20.73
2022-12-29T02:00:29.692Z,23.20
2022-12-29T02:03:33.667Z,20.90
2022-12-29T02:06:42.400Z,19.55
2022-12-29T02:09:48.669Z,20.77
2022-12-29T02:12:52.749Z,21.85
2022-12-29T02:16:08.045Z,23.87
2022-12-29T02:19:33.174Z,20.55
2022-12-29T02:23:20.408Z,22.13
2022-12-29T02:26:50.672Z,21.05
2022-12-29T02:30:08.764Z,18.70
2022-12-29T02:33:20.923Z,21.77
2022-12-29T02:36:42.727Z,24.25
2022-12-29T02:39:54.334Z,22.20
2022-12-29T02:43:09.893Z,21.35
2022-12-29T02:46:28.682Z,21.17
2022-12-29T02:49:39.380Z,20.02
2022-12-29T02:55:50.712Z,22.27
2022-12-29T02:58:52.934Z,25.67
2022-12-29T03:02:17.542Z,22.42
2022-12-29T03:06:13.492Z,21.08
2022-12-29T03:09:30.285Z,24.63
2022-12-29T03:13:13.530Z,20.88
2022-12-29T03:16:34.936Z,23.00
2022-12-29T03:19:43.234Z,23.50
2022-12-29T03:22:50.369Z,22.02
2022-12-29T03:25:57.411Z,23.92
2022-12-29T03:29:00.111Z,23.67
2022-12-29T03:32:05.925Z,23.73
2022-12-29T03:35:11.047Z,23.70
2022-12-29T03:38:21.183Z,25.50
2022-12-29T03:41:29.441Z,23.90
2022-12-29T03:44:41.904Z,24.60
2022-12-29T03:47:44.906Z,22.33
2022-12-29T03:50:47.491Z,25.00
2022-12-29T03:53:50.935Z,25.48
2022-12-29T03:56:53.146Z,21.45
2022-12-29T03:59:56.761Z,20.27
2022-12-29T04:02:59.144Z,25.70
2022-12-29T04:06:02.053Z,21.37
2022-12-29T04:09:04.814Z,23.35
2022-12-29T04:12:08.575Z,23.60
2022-12-29T04:15:11.086Z,26.50
2022-12-29T04:18:14.258Z,23.73
2022-12-29T04:21:16.869Z,23.33
2022-12-29T04:24:20.832Z,22.40
2022-12-29T04:27:24.570Z,23.87
2022-12-29T04:30:27.876Z,22.10
2022-12-29T04:33:31.092Z,25.23
2022-12-29T04:36:34.130Z,23.35
2022-12-29T04:39:36.926Z,22.48
2022-12-29T04:42:39.739Z,25.48
2022-12-29T04:45:47.338Z,24.52
2022-12-29T04:48:51.276Z,25.12
2022-12-29T04:51:53.661Z,25.27
2022-12-29T04:54:56.170Z,25.15
2022-12-29T04:57:58.807Z,27.05
2022-12-29T05:01:02.246Z,26.58
2022-12-29T05:04:04.863Z,24.00
2022-12-29T05:07:08.468Z,27.55
2022-12-29T05:10:11.594Z,27.37
2022-12-29T05:13:14.443Z,27.73
2022-12-29T05:16:17.980Z,25.23
2022-12-29T05:19:21.530Z,21.83
2022-12-29T05:22:23.973Z,33.00
2022-12-29T05:25:26.763Z,25.17
2022-12-29T05:28:29.959Z,22.23
2022-12-29T05:31:33.414Z,25.33
2022-12-29T05:34:36.573Z,22.90
2022-12-29T05:37:39.177Z,27.05
2022-12-29T05:40:41.556Z,22.87
2022-12-29T05:43:44.624Z,25.42
2022-12-29T05:46:47.226Z,24.70
2022-12-29T05:49:50.555Z,28.08
2022-12-29T05:52:53.467Z,24.98
2022-12-29T05:55:55.963Z,24.70
2022-12-29T05:58:58.189Z,27.02
2022-12-29T06:02:00.832Z,26.00
2022-12-29T06:05:04.099Z,24.33
2022-12-29T06:08:06.330Z,28.98
2022-12-29T06:11:10.443Z,27.20
2022-12-29T06:14:14.006Z,27.23
2022-12-29T06:17:16.648Z,25.62
2022-12-29T06:20:19.595Z,26.48
2022-12-29T06:23:22.161Z,29.87
2022-12-29T06:26:24.451Z,26.42
2022-12-29T06:29:26.995Z,26.30
2022-12-29T06:32:30.770Z,24.27
2022-12-29T06:35:35.443Z,26.08
2022-12-29T06:38:37.671Z,29.17
2022-12-29T06:41:40.339Z,32.67
2022-12-29T06:44:42.985Z,31.25
2022-12-29T06:47:45.613Z,29.92
2022-12-29T06:50:47.773Z,27.95
2022-12-29T06:53:50.218Z,28.58
2022-12-29T06:56:52.344Z,29.15
2022-12-29T06:59:56.732Z,25.58
2022-12-29T07:02:59.230Z,28.02
2022-12-29T07:06:02.064Z,34.20
2022-12-29T07:09:04.317Z,30.58
2022-12-29T07:12:07.075Z,30.20
2022-12-29T07:15:09.796Z,29.63
2022-12-29T07:18:12.311Z,29.45
2022-12-29T07:21:14.497Z,30.50
2022-12-29T07:24:17.003Z,30.25
2022-12-29T07:27:19.170Z,28.48
2022-12-29T07:30:21.799Z,29.08
2022-12-29T07:33:23.997Z,34.60
2022-12-29T07:36:32.355Z,27.05
2022-12-29T07:39:36.451Z,30.92
2022-12-29T07:42:38.895Z,32.75
2022-12-29T07:45:43.042Z,36.05
2022-12-29T07:48:45.538Z,33.42
2022-12-29T07:51:47.810Z,34.38
2022-12-29T07:54:50.320Z,36.67
2022-12-29T07:57:56.712Z,35.17
2022-12-29T08:00:59.425Z,32.05
2022-12-29T08:04:01.988Z,34.75
2022-12-29T08:07:04.360Z,31.98
2022-12-29T08:10:07.502Z,33.08
2022-12-29T08:13:09.660Z,30.20
2022-12-29T08:16:12.129Z,33.63
2022-12-29T08:19:14.893Z,34.95
2022-12-29T08:22:17.379Z,35.85
2022-12-29T08:25:20.607Z,31.50
2022-12-29T08:28:23.108Z,31.42
2022-12-29T08:31:25.991Z,32.05
2022-12-29T08:34:28.987Z,35.63
2022-12-29T08:37:32.769Z,35.95
2022-12-29T08:40:35.239Z,31.98
2022-12-29T08:43:37.478Z,37.70
2022-12-29T08:46:40.147Z,34.25
2022-12-29T08:49:42.309Z,34.75
2022-12-29T08:52:44.821Z,31.55
2022-12-29T08:55:47.770Z,36.30
2022-12-29T08:58:51.900Z,34.95
2022-12-29T09:01:54.439Z,34.38
2022-12-29T09:04:58.292Z,35.78
2022-12-29T09:08:00.601Z,39.30
2022-12-29T09:11:19.824Z,40.50
2022-12-29T09:14:22.490Z,36.08
2022-12-29T09:17:44.411Z,34.63
2022-12-29T09:20:46.594Z,36.60
2022-12-29T09:23:49.609Z,37.85
2022-12-29T09:26:51.749Z,36.95
2022-12-29T09:29:54.530Z,39.22
2022-12-29T09:32:56.744Z,36.28
2022-12-29T09:35:59.610Z,37.00
2022-12-29T09:39:01.799Z,38.15
2022-12-29T09:42:15.178Z,36.05
2022-12-29T09:45:38.281Z,36.05
2022-12-29T09:48:49.131Z,36.25
2022-12-29T09:51:58.269Z,39.38
2022-12-29T09:55:15.487Z,39.25
2022-12-29T09:58:42.467Z,38.63
2022-12-29T10:01:57.731Z,34.58
2022-12-29T10:05:00.930Z,35.67
2022-12-29T10:08:18.279Z,38.85
2022-12-29T10:11:36.392Z,38.67
2022-12-29T10:15:11.326Z,37.70
2022-12-29T10:18:49.288Z,43.25
2022-12-29T10:22:26.637Z,41.28
2022-12-29T10:25:35.504Z,41.00
2022-12-29T10:28:43.978Z,44.33
2022-12-29T10:31:58.819Z,38.97
2022-12-29T10:35:14.962Z,42.08
2022-12-29T10:38:52.276Z,37.25
2022-12-29T10:42:12.164Z,37.13
2022-12-29T10:45:17.551Z,38.92
2022-12-29T10:48:28.517Z,42.75
2022-12-29T10:51:39.416Z,36.92
2022-12-29T10:54:59.564Z,42.95
2022-12-29T10:58:05.828Z,38.10
2022-12-29T11:01:12.140Z,36.83
2022-12-29T11:04:46.458Z,39.85
2022-12-29T11:07:54.006Z,38.28
2022-12-29T11:11:02.651Z,38.40
2022-12-29T11:14:19.957Z,37.85
2022-12-29T11:17:22.407Z,37.13
2022-12-29T11:20:39.666Z,36.17
2022-12-29T11:23:43.072Z,37.33
2022-12-29T11:26:45.799Z,36.53
2022-12-29T11:29:49.720Z,38.38
2022-12-29T11:32:54.287Z,39.70
2022-12-29T11:36:06.795Z,38.15
2022-12-29T11:39:28.699Z,39.90
2022-12-29T11:42:42.146Z,37.67
2022-12-29T11:45:47.780Z,42.97
2022-12-29T11:48:50.661Z,37.95
2022-12-29T11:51:58.051Z,40.20
2022-12-29T11:55:02.281Z,39.65
2022-12-29T11:58:06.000Z,35.72
2022-12-29T12:01:14.969Z,39.60
2022-12-29T12:04:20.265Z,36.47
2022-12-29T12:07:33.235Z,38.78
2022-12-29T12:10:47.661Z,36.45
2022-12-29T12:14:01.897Z,36.15
2022-12-29T12:17:12.811Z,39.05
2022-12-29T12:20:23.291Z,38.15
2022-12-29T12:23:41.714Z,38.92
2022-12-29T12:26:50.003Z,39.05
2022-12-29T12:30:04.062Z,40.17
2022-12-29T12:33:25.802Z,44.25
2022-12-29T12:37:07.343Z,42.42
2022-12-29T12:40:48.535Z,41.15
2022-12-29T12:43:57.269Z,40.47
2022-12-29T12:47:12.590Z,41.22
2022-12-29T12:50:22.247Z,40.58
2022-12-29T12:53:32.410Z,39.67
2022-12-29T12:56:54.315Z,42.45
2022-12-29T13:00:05.644Z,40.70
2022-12-29T13:03:32.488Z,38.60
2022-12-29T13:07:04.360Z,43.00
2022-12-29T13:10:53.487Z,39.40
2022-12-29T13:14:27.826Z,40.00
2022-12-29T13:17:46.677Z,38.47
2022-12-29T13:21:00.595Z,41.50
2022-12-29T13:24:17.044Z,42.70
2022-12-29T13:27:25.319Z,41.70
2022-12-29T13:30:52.093Z,38.92
2022-12-29T13:34:41.784Z,40.72
2022-12-29T13:37:57.757Z,39.22
2022-12-29T13:41:10.891Z,39.45
2022-12-29T13:44:19.011Z,36.88
2022-12-29T13:47:24.201Z,37.72
2022-12-29T13:50:29.049Z,39.95
2022-12-29T13:53:55.029Z,42.28
2022-12-29T13:57:09.164Z,39.85
2022-12-29T14:00:20.754Z,39.15
2022-12-29T14:03:42.286Z,42.95
2022-12-29T14:06:46.144Z,42.25
2022-12-29T14:09:52.349Z,39.55
2022-12-29T14:13:04.029Z,40.17
2022-12-29T14:16:07.671Z,43.00
2022-12-29T14:19:16.152Z,40.17
2022-12-29T14:22:32.620Z,38.10
2022-12-29T14:25:57.448Z,40.25
2022-12-29T14:29:26.191Z,45.00
2022-12-29T14:32:28.370Z,39.78
2022-12-29T14:35:45.545Z,41.95
2022-12-29T14:38:48.932Z,39.95
2022-12-29T14:42:09.738Z,41.75
2022-12-29T14:45:14.607Z,44.42
2022-12-29T14:48:44.345Z,44.75
2022-12-29T14:51:48.435Z,41.85
2022-12-29T14:54:55.112Z,38.13
2022-12-29T14:58:03.022Z,41.92
2022-12-29T15:01:18.712Z,36.80
2022-12-29T15:04:42.092Z,42.13
2022-12-29T15:07:44.588Z,41.47
2022-12-29T15:10:54.275Z,44.50
2022-12-29T15:13:56.874Z,40.83
2022-12-29T15:16:59.568Z,44.10
2022-12-29T15:20:22.296Z,42.72
2022-12-29T15:23:25.274Z,44.03
2022-12-29T15:26:39.756Z,46.17
2022-12-29T15:29:44.687Z,40.58
2022-12-29T15:32:48.753Z,43.83
2022-12-29T15:35:52.589Z,46.08
2022-12-29T15:38:55.490Z,45.47
2022-12-29T15:42:00.720Z,45.83
2022-12-29T15:45:11.582Z,42.75
2022-12-29T15:48:26.185Z,42.62
2022-12-29T15:51:34.348Z,39.30
2022-12-29T15:54:37.936Z,47.67
2022-12-29T15:57:44.068Z,42.22
2022-12-29T16:00:53.988Z,43.10
2022-12-29T16:03:58.995Z,44.33
2022-12-29T16:07:04.303Z,46.50
2022-12-29T16:10:07.002Z,44.70
2022-12-29T16:13:27.103Z,47.85
2022-12-29T16:16:36.149Z,45.10
2022-12-29T16:19:41.595Z,43.08
2022-12-29T16:22:49.520Z,50.10
2022-12-29T16:25:55.477Z,46.40
2022-12-29T16:29:05.886Z,44.85
2022-12-29T16:32:26.468Z,47.08
2022-12-29T16:35:39.319Z,46.00
2022-12-29T16:38:42.905Z,46.53
2022-12-29T16:41:45.309Z,46.10
2022-12-29T16:44:47.802Z,49.03
2022-12-29T16:48:05.582Z,48.13
2022-12-29T16:51:16.601Z,48.05
2022-12-29T16:54:41.452Z,48.72
2022-12-29T16:57:45.239Z,50.15
2022-12-29T17:00:48.298Z,50.12
2022-12-29T17:03:55.810Z,47.83
2022-12-29T17:06:58.401Z,48.92
2022-12-29T17:10:00.628Z,55.70
2022-12-29T17:13:03.157Z,51.45
2022-12-29T17:16:10.781Z,54.80
2022-12-29T17:19:22.167Z,55.25
2022-12-29T17:22:27.026Z,49.35
2022-12-29T17:25:38.244Z,56.15
2022-12-29T17:28:40.467Z,55.10
2022-12-29T17:31:42.975Z,51.60
2022-12-29T17:34:45.185Z,53.42
2022-12-29T17:37:48.954Z,51.00
2022-12-29T17:40:51.269Z,49.70
2022-12-29T17:43:53.735Z,48.80
2022-12-29T17:46:55.913Z,53.08
2022-12-29T17:49:58.345Z,52.30
2022-12-29T17:53:04.397Z,52.03
2022-12-29T17:56:07.386Z,55.35
2022-12-29T17:59:13.963Z,53.17
2022-12-29T18:02:27.695Z,50.85
2022-12-29T18:05:31.194Z,52.33
2022-12-29T18:08:35.375Z,53.70
2022-12-29T18:11:43.197Z,54.50
2022-12-29T18:14:45.376Z,51.28
2022-12-29T18:17:48.687Z,51.60
2022-12-29T18:20:53.716Z,48.60
2022-12-29T18:23:56.163Z,50.12
2022-12-29T18:26:58.326Z,48.42
2022-12-29T18:30:00.806Z,47.75
2022-12-29T18:33:03.066Z,49.50
2022-12-29T18:36:05.852Z,47.88
2022-12-29T18:39:08.378Z,53.38
2022-12-29T18:42:17.202Z,47.80
2022-12-29T18:45:22.465Z,50.85
2022-12-29T18:48:24.936Z,48.97
2022-12-29T18:51:27.196Z,51.03
2022-12-29T18:54:32.351Z,48.47
2022-12-29T18:57:34.501Z,48.92
2022-12-29T19:00:37.164Z,48.33
2022-12-29T19:03:39.399Z,52.62
2022-12-29T19:06:42.964Z,47.65
2022-12-29T19:09:45.170Z,49.15
2022-12-29T19:12:48.477Z,48.47
2022-12-29T19:15:51.039Z,51.20
2022-12-29T19:19:08.954Z,53.50
2022-12-29T19:22:11.909Z,48.13
2022-12-29T19:25:14.375Z,40.97
2022-12-29T19:28:20.552Z,47.10
2022-12-29T19:31:23.100Z,50.03
2022-12-29T19:34:25.446Z,46.65
2022-12-29T19:37:27.925Z,47.22
2022-12-29T19:40:30.233Z,50.28
2022-12-29T19:43:32.703Z,44.03
2022-12-29T19:46:34.963Z,44.10
2022-12-29T19:49:37.529Z,47.80
2022-12-29T19:52:39.660Z,44.97
2022-12-29T19:55:47.174Z,47.85
2022-12-29T19:58:52.249Z,42.60
2022-12-29T20:01:55.057Z,42.03
2022-12-29T20:04:58.113Z,44.33
2022-12-29T20:08:00.334Z,40.45
2022-12-29T20:11:08.642Z,41.70
2022-12-29T20:14:10.811Z,41.20
2022-12-29T20:17:15.725Z,43.75
2022-12-29T20:20:17.956Z,46.55
2022-12-29T20:23:21.599Z,40.08
2022-12-29T20:26:27.373Z,44.55
2022-12-29T20:29:41.061Z,40.20
2022-12-29T20:32:43.265Z,44.35
2022-12-29T20:35:45.720Z,40.67
2022-12-29T20:38:49.492Z,40.33
2022-12-29T20:41:52.083Z,43.70
2022-12-29T20:44:54.272Z,41.63
2022-12-29T20:47:56.886Z,42.58
2022-12-29T20:51:00.386Z,42.85
2022-12-29T20:54:02.980Z,39.47
2022-12-29T20:57:05.161Z,43.03
2022-12-29T21:00:09.805Z,42.40
2022-12-29T21:03:12.118Z,41.55
2022-12-29T21:06:16.455Z,40.88
2022-12-29T21:09:20.249Z,42.35
2022-12-29T21:12:22.767Z,44.75
2022-12-29T21:15:24.957Z,45.60
2022-12-29T21:18:28.377Z,45.12
2022-12-29T21:21:30.624Z,47.25
2022-12-29T21:24:33.074Z,42.85
2022-12-29T21:27:35.263Z,39.90
2022-12-29T21:30:38.309Z,37.97
2022-12-29T21:33:40.611Z,43.92
2022-12-29T21:36:43.099Z,38.47
2022-12-29T21:39:45.237Z,38.08
2022-12-29T21:42:47.814Z,38.35
2022-12-29T21:45:50.409Z,41.58
2022-12-29T21:48:53.020Z,40.08
2022-12-29T21:51:55.858Z,40.90
2022-12-29T21:55:00.931Z,41.13
2022-12-29T21:58:21.847Z,36.63
2022-12-29T22:05:04.873Z,39.08
2022-12-29T22:08:25.827Z,38.33
2022-12-29T22:14:49.105Z,40.63
2022-12-29T22:17:53.883Z,38.95
2022-12-29T22:20:56.092Z,37.78
2022-12-29T22:24:00.521Z,43.20
2022-12-29T22:27:02.836Z,41.45
2022-12-29T22:30:07.163Z,42.85
2022-12-29T22:33:09.467Z,40.97
2022-12-29T22:36:11.953Z,40.05
2022-12-29T22:39:14.097Z,41.15
2022-12-29T22:42:16.874Z,42.22
2022-12-29T22:45:19.134Z,41.60
2022-12-29T22:48:21.594Z,42.65
2022-12-29T22:51:23.781Z,40.78
2022-12-29T22:54:26.247Z,42.03
2022-12-29T22:57:30.410Z,42.85
2022-12-29T23:00:32.882Z,43.63
2022-12-29T23:03:35.902Z,41.22
2022-12-29T23:06:39.646Z,40.75
2022-12-29T23:09:41.924Z,39.80
2022-12-29T23:12:44.512Z,41.63
2022-12-29T23:15:48.202Z,41.25
2022-12-29T23:18:51.722Z,40.75
2022-12-29T23:21:54.057Z,44.33
2022-12-29T23:24:56.576Z,43.78
2022-12-29T23:27:58.752Z,43.58
2022-12-29T23:31:01.420Z,43.47
2022-12-29T23:34:05.368Z,43.17
2022-12-29T23:37:07.885Z,42.85
2022-12-29T23:40:10.686Z,41.00
2022-12-29T23:43:13.150Z,41.15
2022-12-29T23:46:18.674Z,44.85
2022-12-29T23:49:21.356Z,45.05
2022-12-29T23:52:23.680Z,43.40
2022-12-29T23:55:26.150Z,47.70
2022-12-29T23:58:35.222Z,51.70
